Pagina principale
METAR-TAF:

METAR-TAF

Aeroporti :

Aeroporto di Catania-Fontanarossa

Catania, Italia

latitudine: 37-28N, longitudine: 015-03E, altezza: 11 m

Osservazione

Il bollettino è stato emesso 28 minuti fa, alle 20:20 UTC
Vento 1 kt da direzioni variabili
Temperature 25°C
Umidità 79%
Pressione 1018 hPa
Visibilità 10 km o più
nessuna nube inferiore a 1500 m e nessun cumulonembo

METAR: LICC 162020Z VRB01KT CAVOK 25/21 Q1018

Ora: 22:48 (20:48 UTC)

Previsione

Il bollettino è stato emesso 3 ore e 48 minuti fa, alle 17:00 UTC
Previsione valida dal 16 alle 18 UTC al 17 alle 18 UTC
Vento 12 kt da est
Visibilità 10 km o più
nessuna nube inferiore a 1500 m e nessun cumulonembo
Evoluzione graduale
dal 16 alle 18 UTC al 16 alle 20 UTC
Vento 5 kt da direzioni variabili
Evoluzione graduale
dal 17 alle 08 UTC al 17 alle 10 UTC
Vento 12 kt da est

TAF: LICC 161700Z 1618/1718 10012KT CAVOK BECMG 1618/1620 VRB05KT BECMG 1708/1710 10012KT

Osservazioni e previsioni meteorologiche di più di 4000 aeroporti (messaggi METAR e TAF).

Le stazioni disponibili sono rappresentate dai dischi gialli e rossi sulla carta.

Puntare il mouse per vedere il nome della stazione.

Clicca sopra per visualizzare le osservazioni e previsioni meteorologiche.

Per cambiare la mappa : fare clic sui pulsanti verdi con una croce nera per ingrandire, il pulsante verde con un trattino per diminuire, o sulla freccia verde per le mappe adiacenti.


METAR-TAF: